sensor_id;sensor_type;location;lat;lon;timestamp;P1;durP1;ratioP1;P2;durP2;ratioP2
63965;SDS011;50151;52.030;5.350;2023-07-28T00:01:35;7.22;;;5.30;;
63965;SDS011;50151;52.030;5.350;2023-07-28T00:04:02;7.93;;;5.95;;
63965;SDS011;50151;52.030;5.350;2023-07-28T00:06:33;10.57;;;6.00;;
63965;SDS011;50151;52.030;5.350;2023-07-28T00:09:01;14.18;;;5.63;;
63965;SDS011;50151;52.030;5.350;2023-07-28T00:11:28;9.05;;;5.63;;
63965;SDS011;50151;52.030;5.350;2023-07-28T00:13:55;9.43;;;5.70;;
63965;SDS011;50151;52.030;5.350;2023-07-28T00:16:22;11.30;;;5.80;;
63965;SDS011;50151;52.030;5.350;2023-07-28T00:18:49;10.23;;;5.90;;
63965;SDS011;50151;52.030;5.350;2023-07-28T00:21:15;8.02;;;5.78;;
63965;SDS011;50151;52.030;5.350;2023-07-28T00:23:42;9.07;;;5.47;;
63965;SDS011;50151;52.030;5.350;2023-07-28T00:26:09;10.82;;;4.68;;
63965;SDS011;50151;52.030;5.350;2023-07-28T00:28:35;9.45;;;5.68;;
63965;SDS011;50151;52.030;5.350;2023-07-28T00:31:02;8.20;;;5.35;;
63965;SDS011;50151;52.030;5.350;2023-07-28T00:33:29;11.75;;;5.65;;
63965;SDS011;50151;52.030;5.350;2023-07-28T00:35:55;12.60;;;4.95;;
63965;SDS011;50151;52.030;5.350;2023-07-28T00:38:22;7.60;;;4.72;;
63965;SDS011;50151;52.030;5.350;2023-07-28T00:40:49;9.70;;;4.75;;
63965;SDS011;50151;52.030;5.350;2023-07-28T00:43:16;11.63;;;5.18;;
63965;SDS011;50151;52.030;5.350;2023-07-28T00:45:42;9.25;;;4.80;;
63965;SDS011;50151;52.030;5.350;2023-07-28T00:48:12;8.10;;;4.13;;
63965;SDS011;50151;52.030;5.350;2023-07-28T00:50:41;8.18;;;4.10;;
63965;SDS011;50151;52.030;5.350;2023-07-28T00:53:10;9.20;;;4.60;;
63965;SDS011;50151;52.030;5.350;2023-07-28T00:55:37;10.00;;;4.00;;
63965;SDS011;50151;52.030;5.350;2023-07-28T00:58:04;7.63;;;3.92;;
63965;SDS011;50151;52.030;5.350;2023-07-28T01:00:31;9.57;;;3.97;;
63965;SDS011;50151;52.030;5.350;2023-07-28T01:02:58;11.85;;;4.30;;
63965;SDS011;50151;52.030;5.350;2023-07-28T01:05:29;5.50;;;4.03;;
63965;SDS011;50151;52.030;5.350;2023-07-28T01:08:10;8.40;;;4.18;;
63965;SDS011;50151;52.030;5.350;2023-07-28T01:10:42;8.93;;;4.90;;
63965;SDS011;50151;52.030;5.350;2023-07-28T01:13:10;8.05;;;4.50;;
63965;SDS011;50151;52.030;5.350;2023-07-28T01:15:36;9.52;;;4.70;;
63965;SDS011;50151;52.030;5.350;2023-07-28T01:18:03;8.27;;;4.60;;
63965;SDS011;50151;52.030;5.350;2023-07-28T01:20:31;11.57;;;4.90;;
63965;SDS011;50151;52.030;5.350;2023-07-28T01:23:05;10.63;;;4.95;;
63965;SDS011;50151;52.030;5.350;2023-07-28T01:28:21;9.30;;;5.03;;
63965;SDS011;50151;52.030;5.350;2023-07-28T01:30:49;13.02;;;5.50;;
63965;SDS011;50151;52.030;5.350;2023-07-28T01:33:16;12.73;;;5.28;;
63965;SDS011;50151;52.030;5.350;2023-07-28T01:35:42;8.43;;;4.18;;
63965;SDS011;50151;52.030;5.350;2023-07-28T01:38:09;13.32;;;5.43;;
63965;SDS011;50151;52.030;5.350;2023-07-28T01:40:36;10.90;;;5.00;;
63965;SDS011;50151;52.030;5.350;2023-07-28T01:43:02;14.85;;;5.68;;
63965;SDS011;50151;52.030;5.350;2023-07-28T01:45:29;11.20;;;5.60;;
63965;SDS011;50151;52.030;5.350;2023-07-28T01:47:56;16.50;;;5.95;;
63965;SDS011;50151;52.030;5.350;2023-07-28T01:50:23;13.00;;;5.88;;
63965;SDS011;50151;52.030;5.350;2023-07-28T01:52:49;18.50;;;5.68;;
63965;SDS011;50151;52.030;5.350;2023-07-28T01:55:16;14.45;;;6.18;;
63965;SDS011;50151;52.030;5.350;2023-07-28T01:57:49;16.30;;;6.50;;
63965;SDS011;50151;52.030;5.350;2023-07-28T02:00:20;17.85;;;6.97;;
63965;SDS011;50151;52.030;5.350;2023-07-28T02:02:47;16.45;;;6.80;;
63965;SDS011;50151;52.030;5.350;2023-07-28T02:05:14;13.25;;;6.15;;
63965;SDS011;50151;52.030;5.350;2023-07-28T02:07:41;13.35;;;6.47;;
63965;SDS011;50151;52.030;5.350;2023-07-28T02:10:08;17.73;;;6.63;;
63965;SDS011;50151;52.030;5.350;2023-07-28T02:12:39;19.48;;;6.90;;
63965;SDS011;50151;52.030;5.350;2023-07-28T02:15:06;11.38;;;5.57;;
63965;SDS011;50151;52.030;5.350;2023-07-28T02:17:33;14.73;;;6.18;;
63965;SDS011;50151;52.030;5.350;2023-07-28T02:20:01;21.15;;;7.35;;
63965;SDS011;50151;52.030;5.350;2023-07-28T02:22:29;19.60;;;6.60;;
63965;SDS011;50151;52.030;5.350;2023-07-28T02:24:56;15.65;;;7.05;;
63965;SDS011;50151;52.030;5.350;2023-07-28T02:27:27;17.95;;;6.88;;
63965;SDS011;50151;52.030;5.350;2023-07-28T02:29:54;23.25;;;6.70;;
63965;SDS011;50151;52.030;5.350;2023-07-28T02:32:21;15.40;;;6.82;;
63965;SDS011;50151;52.030;5.350;2023-07-28T02:34:48;18.75;;;7.07;;
63965;SDS011;50151;52.030;5.350;2023-07-28T02:37:15;18.15;;;7.55;;
63965;SDS011;50151;52.030;5.350;2023-07-28T02:39:42;26.52;;;7.28;;
63965;SDS011;50151;52.030;5.350;2023-07-28T02:42:09;17.65;;;7.38;;
63965;SDS011;50151;52.030;5.350;2023-07-28T02:44:36;17.73;;;7.32;;
63965;SDS011;50151;52.030;5.350;2023-07-28T02:47:02;17.88;;;7.38;;
63965;SDS011;50151;52.030;5.350;2023-07-28T02:49:29;18.48;;;7.63;;
63965;SDS011;50151;52.030;5.350;2023-07-28T02:51:56;28.98;;;8.02;;
63965;SDS011;50151;52.030;5.350;2023-07-28T02:54:23;17.48;;;7.50;;
63965;SDS011;50151;52.030;5.350;2023-07-28T02:56:51;23.95;;;7.95;;
63965;SDS011;50151;52.030;5.350;2023-07-28T02:59:18;23.10;;;8.50;;
63965;SDS011;50151;52.030;5.350;2023-07-28T03:01:45;24.38;;;7.95;;
63965;SDS011;50151;52.030;5.350;2023-07-28T03:04:12;25.15;;;8.40;;
63965;SDS011;50151;52.030;5.350;2023-07-28T03:06:38;27.08;;;8.75;;
63965;SDS011;50151;52.030;5.350;2023-07-28T03:09:05;22.15;;;8.57;;
63965;SDS011;50151;52.030;5.350;2023-07-28T03:11:32;27.85;;;8.85;;
63965;SDS011;50151;52.030;5.350;2023-07-28T03:13:59;21.60;;;9.38;;
63965;SDS011;50151;52.030;5.350;2023-07-28T03:16:26;21.92;;;8.02;;
63965;SDS011;50151;52.030;5.350;2023-07-28T03:18:53;26.45;;;9.00;;
63965;SDS011;50151;52.030;5.350;2023-07-28T03:21:19;24.50;;;8.77;;
63965;SDS011;50151;52.030;5.350;2023-07-28T03:23:46;25.65;;;9.73;;
63965;SDS011;50151;52.030;5.350;2023-07-28T03:26:13;24.55;;;9.20;;
63965;SDS011;50151;52.030;5.350;2023-07-28T03:28:39;26.65;;;9.55;;
63965;SDS011;50151;52.030;5.350;2023-07-28T03:31:06;30.00;;;8.98;;
63965;SDS011;50151;52.030;5.350;2023-07-28T03:33:33;25.30;;;9.80;;
63965;SDS011;50151;52.030;5.350;2023-07-28T03:35:59;27.77;;;9.18;;
63965;SDS011;50151;52.030;5.350;2023-07-28T03:38:26;28.48;;;8.43;;
63965;SDS011;50151;52.030;5.350;2023-07-28T03:40:53;31.00;;;10.93;;
63965;SDS011;50151;52.030;5.350;2023-07-28T03:43:20;25.75;;;9.88;;
63965;SDS011;50151;52.030;5.350;2023-07-28T03:45:47;27.15;;;10.30;;
63965;SDS011;50151;52.030;5.350;2023-07-28T03:48:14;28.17;;;9.80;;
63965;SDS011;50151;52.030;5.350;2023-07-28T03:50:40;29.05;;;10.55;;
63965;SDS011;50151;52.030;5.350;2023-07-28T03:53:07;29.75;;;10.57;;
63965;SDS011;50151;52.030;5.350;2023-07-28T03:55:34;24.83;;;10.15;;
63965;SDS011;50151;52.030;5.350;2023-07-28T03:58:01;25.55;;;9.68;;
63965;SDS011;50151;52.030;5.350;2023-07-28T04:00:29;26.30;;;9.82;;
63965;SDS011;50151;52.030;5.350;2023-07-28T04:02:55;27.90;;;9.63;;
63965;SDS011;50151;52.030;5.350;2023-07-28T04:05:22;28.75;;;10.13;;
63965;SDS011;50151;52.030;5.350;2023-07-28T04:07:49;30.15;;;10.05;;
63965;SDS011;50151;52.030;5.350;2023-07-28T04:10:16;32.63;;;10.48;;
63965;SDS011;50151;52.030;5.350;2023-07-28T04:12:42;27.30;;;10.45;;
63965;SDS011;50151;52.030;5.350;2023-07-28T04:15:09;27.52;;;9.57;;
63965;SDS011;50151;52.030;5.350;2023-07-28T04:17:36;25.92;;;10.32;;
63965;SDS011;50151;52.030;5.350;2023-07-28T04:20:03;23.65;;;9.32;;
63965;SDS011;50151;52.030;5.350;2023-07-28T04:22:30;26.85;;;10.45;;
63965;SDS011;50151;52.030;5.350;2023-07-28T04:24:57;29.58;;;10.40;;
63965;SDS011;50151;52.030;5.350;2023-07-28T04:27:24;26.02;;;10.20;;
63965;SDS011;50151;52.030;5.350;2023-07-28T04:29:50;29.20;;;10.05;;
63965;SDS011;50151;52.030;5.350;2023-07-28T04:32:17;28.52;;;9.70;;
63965;SDS011;50151;52.030;5.350;2023-07-28T04:34:44;28.40;;;10.02;;
63965;SDS011;50151;52.030;5.350;2023-07-28T04:37:11;27.60;;;9.45;;
63965;SDS011;50151;52.030;5.350;2023-07-28T04:39:37;27.13;;;10.20;;
63965;SDS011;50151;52.030;5.350;2023-07-28T04:42:04;28.58;;;10.25;;
63965;SDS011;50151;52.030;5.350;2023-07-28T04:44:31;29.30;;;10.00;;
63965;SDS011;50151;52.030;5.350;2023-07-28T04:46:57;20.45;;;8.55;;
63965;SDS011;50151;52.030;5.350;2023-07-28T04:49:24;30.70;;;9.52;;
63965;SDS011;50151;52.030;5.350;2023-07-28T04:51:51;25.10;;;9.23;;
63965;SDS011;50151;52.030;5.350;2023-07-28T04:54:18;24.23;;;10.20;;
63965;SDS011;50151;52.030;5.350;2023-07-28T04:56:44;33.55;;;9.80;;
63965;SDS011;50151;52.030;5.350;2023-07-28T04:59:12;27.17;;;9.95;;
63965;SDS011;50151;52.030;5.350;2023-07-28T05:01:38;21.48;;;9.40;;
63965;SDS011;50151;52.030;5.350;2023-07-28T05:04:05;25.45;;;9.57;;
63965;SDS011;50151;52.030;5.350;2023-07-28T05:06:32;21.13;;;9.50;;
63965;SDS011;50151;52.030;5.350;2023-07-28T05:08:59;24.25;;;9.88;;
63965;SDS011;50151;52.030;5.350;2023-07-28T05:11:25;25.05;;;10.32;;
63965;SDS011;50151;52.030;5.350;2023-07-28T05:13:52;24.50;;;10.15;;
63965;SDS011;50151;52.030;5.350;2023-07-28T05:16:19;29.10;;;10.73;;
63965;SDS011;50151;52.030;5.350;2023-07-28T05:18:45;20.98;;;10.15;;
63965;SDS011;50151;52.030;5.350;2023-07-28T05:21:12;31.77;;;10.43;;
63965;SDS011;50151;52.030;5.350;2023-07-28T05:23:39;24.83;;;9.77;;
63965;SDS011;50151;52.030;5.350;2023-07-28T05:26:05;29.88;;;11.07;;
63965;SDS011;50151;52.030;5.350;2023-07-28T05:28:34;26.02;;;9.68;;
63965;SDS011;50151;52.030;5.350;2023-07-28T05:31:05;33.00;;;10.82;;
63965;SDS011;50151;52.030;5.350;2023-07-28T05:33:32;18.00;;;8.60;;
63965;SDS011;50151;52.030;5.350;2023-07-28T05:36:05;28.85;;;10.10;;
63965;SDS011;50151;52.030;5.350;2023-07-28T05:38:32;28.65;;;10.57;;
63965;SDS011;50151;52.030;5.350;2023-07-28T05:40:59;18.65;;;8.60;;
63965;SDS011;50151;52.030;5.350;2023-07-28T05:43:27;20.02;;;9.57;;
63965;SDS011;50151;52.030;5.350;2023-07-28T05:45:54;29.58;;;10.55;;
63965;SDS011;50151;52.030;5.350;2023-07-28T05:48:21;28.70;;;10.77;;
63965;SDS011;50151;52.030;5.350;2023-07-28T05:50:48;28.65;;;11.07;;
63965;SDS011;50151;52.030;5.350;2023-07-28T05:53:14;24.20;;;10.48;;
63965;SDS011;50151;52.030;5.350;2023-07-28T05:55:41;26.48;;;9.88;;
63965;SDS011;50151;52.030;5.350;2023-07-28T05:58:08;19.83;;;10.38;;
63965;SDS011;50151;52.030;5.350;2023-07-28T06:00:34;22.75;;;10.00;;
63965;SDS011;50151;52.030;5.350;2023-07-28T06:03:06;25.67;;;10.27;;
63965;SDS011;50151;52.030;5.350;2023-07-28T06:05:41;17.70;;;9.30;;
63965;SDS011;50151;52.030;5.350;2023-07-28T06:08:08;25.80;;;9.75;;
63965;SDS011;50151;52.030;5.350;2023-07-28T06:10:35;24.70;;;9.75;;
63965;SDS011;50151;52.030;5.350;2023-07-28T06:13:03;20.92;;;9.50;;
63965;SDS011;50151;52.030;5.350;2023-07-28T06:15:30;19.58;;;10.05;;
63965;SDS011;50151;52.030;5.350;2023-07-28T06:17:57;19.10;;;9.20;;
63965;SDS011;50151;52.030;5.350;2023-07-28T06:20:23;24.13;;;9.82;;
63965;SDS011;50151;52.030;5.350;2023-07-28T06:22:50;23.30;;;9.93;;
63965;SDS011;50151;52.030;5.350;2023-07-28T06:25:17;25.35;;;9.13;;
63965;SDS011;50151;52.030;5.350;2023-07-28T06:27:43;21.40;;;10.48;;
63965;SDS011;50151;52.030;5.350;2023-07-28T06:30:10;21.95;;;9.88;;
63965;SDS011;50151;52.030;5.350;2023-07-28T06:32:37;25.13;;;9.30;;
63965;SDS011;50151;52.030;5.350;2023-07-28T06:35:04;19.80;;;9.48;;
63965;SDS011;50151;52.030;5.350;2023-07-28T06:37:34;23.60;;;9.80;;
63965;SDS011;50151;52.030;5.350;2023-07-28T06:40:01;20.52;;;9.00;;
63965;SDS011;50151;52.030;5.350;2023-07-28T06:42:29;23.70;;;8.13;;
63965;SDS011;50151;52.030;5.350;2023-07-28T06:44:56;17.30;;;8.05;;
63965;SDS011;50151;52.030;5.350;2023-07-28T06:47:23;19.15;;;8.13;;
63965;SDS011;50151;52.030;5.350;2023-07-28T06:49:50;22.30;;;8.55;;
63965;SDS011;50151;52.030;5.350;2023-07-28T06:52:16;17.50;;;7.75;;
63965;SDS011;50151;52.030;5.350;2023-07-28T06:54:43;14.27;;;7.18;;
63965;SDS011;50151;52.030;5.350;2023-07-28T06:57:10;17.88;;;7.32;;
63965;SDS011;50151;52.030;5.350;2023-07-28T06:59:36;17.73;;;7.53;;
63965;SDS011;50151;52.030;5.350;2023-07-28T07:02:04;18.35;;;7.45;;
63965;SDS011;50151;52.030;5.350;2023-07-28T07:04:31;23.67;;;7.28;;
63965;SDS011;50151;52.030;5.350;2023-07-28T07:06:58;22.73;;;7.43;;
63965;SDS011;50151;52.030;5.350;2023-07-28T07:09:25;20.05;;;7.45;;
63965;SDS011;50151;52.030;5.350;2023-07-28T07:11:51;15.68;;;7.07;;
63965;SDS011;50151;52.030;5.350;2023-07-28T07:14:18;21.40;;;6.88;;
63965;SDS011;50151;52.030;5.350;2023-07-28T07:16:45;19.30;;;6.90;;
63965;SDS011;50151;52.030;5.350;2023-07-28T07:19:12;17.60;;;7.28;;
63965;SDS011;50151;52.030;5.350;2023-07-28T07:21:42;14.25;;;6.82;;
63965;SDS011;50151;52.030;5.350;2023-07-28T07:24:11;22.90;;;7.78;;
63965;SDS011;50151;52.030;5.350;2023-07-28T07:26:40;17.58;;;7.38;;
63965;SDS011;50151;52.030;5.350;2023-07-28T07:29:07;16.10;;;6.90;;
63965;SDS011;50151;52.030;5.350;2023-07-28T07:31:35;18.98;;;7.15;;
63965;SDS011;50151;52.030;5.350;2023-07-28T07:34:02;14.15;;;6.72;;
63965;SDS011;50151;52.030;5.350;2023-07-28T07:36:30;12.77;;;6.28;;
63965;SDS011;50151;52.030;5.350;2023-07-28T07:39:00;16.42;;;6.45;;
63965;SDS011;50151;52.030;5.350;2023-07-28T07:41:27;8.05;;;5.07;;
63965;SDS011;50151;52.030;5.350;2023-07-28T07:43:55;15.80;;;5.30;;
63965;SDS011;50151;52.030;5.350;2023-07-28T07:46:22;16.27;;;5.32;;
63965;SDS011;50151;52.030;5.350;2023-07-28T07:48:49;17.25;;;5.38;;
63965;SDS011;50151;52.030;5.350;2023-07-28T07:51:16;13.60;;;5.55;;
63965;SDS011;50151;52.030;5.350;2023-07-28T07:53:43;12.40;;;4.95;;
63965;SDS011;50151;52.030;5.350;2023-07-28T07:56:10;11.43;;;5.15;;
63965;SDS011;50151;52.030;5.350;2023-07-28T07:58:37;14.43;;;5.22;;
63965;SDS011;50151;52.030;5.350;2023-07-28T08:01:04;12.90;;;5.50;;
63965;SDS011;50151;52.030;5.350;2023-07-28T08:03:31;12.02;;;5.25;;
63965;SDS011;50151;52.030;5.350;2023-07-28T08:05:58;18.55;;;6.43;;
63965;SDS011;50151;52.030;5.350;2023-07-28T08:08:25;11.82;;;5.05;;
63965;SDS011;50151;52.030;5.350;2023-07-28T08:10:53;17.30;;;5.60;;
63965;SDS011;50151;52.030;5.350;2023-07-28T08:13:20;16.45;;;5.53;;
63965;SDS011;50151;52.030;5.350;2023-07-28T08:15:48;16.23;;;5.70;;
63965;SDS011;50151;52.030;5.350;2023-07-28T08:18:15;13.82;;;5.72;;
63965;SDS011;50151;52.030;5.350;2023-07-28T08:20:41;14.13;;;4.90;;
63965;SDS011;50151;52.030;5.350;2023-07-28T08:23:08;16.65;;;5.28;;
63965;SDS011;50151;52.030;5.350;2023-07-28T08:25:35;15.80;;;5.13;;
63965;SDS011;50151;52.030;5.350;2023-07-28T08:28:02;11.75;;;5.05;;
63965;SDS011;50151;52.030;5.350;2023-07-28T08:30:30;14.25;;;5.10;;
63965;SDS011;50151;52.030;5.350;2023-07-28T08:32:58;13.63;;;4.25;;
63965;SDS011;50151;52.030;5.350;2023-07-28T08:35:26;14.48;;;4.95;;
63965;SDS011;50151;52.030;5.350;2023-07-28T08:37:53;9.52;;;4.05;;
63965;SDS011;50151;52.030;5.350;2023-07-28T08:40:20;14.02;;;4.35;;
63965;SDS011;50151;52.030;5.350;2023-07-28T08:42:47;11.55;;;4.35;;
63965;SDS011;50151;52.030;5.350;2023-07-28T08:45:15;9.98;;;3.97;;
63965;SDS011;50151;52.030;5.350;2023-07-28T08:47:45;13.98;;;3.60;;
63965;SDS011;50151;52.030;5.350;2023-07-28T08:50:12;18.45;;;3.85;;
63965;SDS011;50151;52.030;5.350;2023-07-28T08:52:38;8.65;;;3.30;;
63965;SDS011;50151;52.030;5.350;2023-07-28T08:55:05;8.13;;;3.15;;
63965;SDS011;50151;52.030;5.350;2023-07-28T08:57:32;9.98;;;3.40;;
63965;SDS011;50151;52.030;5.350;2023-07-28T09:00:06;9.27;;;3.95;;
63965;SDS011;50151;52.030;5.350;2023-07-28T09:02:34;11.55;;;3.78;;
63965;SDS011;50151;52.030;5.350;2023-07-28T09:05:02;10.13;;;3.90;;
63965;SDS011;50151;52.030;5.350;2023-07-28T09:07:36;11.88;;;4.00;;
63965;SDS011;50151;52.030;5.350;2023-07-28T09:10:03;10.90;;;3.97;;
63965;SDS011;50151;52.030;5.350;2023-07-28T09:12:31;8.95;;;4.20;;
63965;SDS011;50151;52.030;5.350;2023-07-28T09:14:58;8.55;;;3.58;;
63965;SDS011;50151;52.030;5.350;2023-07-28T09:17:25;11.50;;;4.20;;
63965;SDS011;50151;52.030;5.350;2023-07-28T09:19:56;10.70;;;4.10;;
63965;SDS011;50151;52.030;5.350;2023-07-28T09:22:23;10.95;;;3.67;;
63965;SDS011;50151;52.030;5.350;2023-07-28T09:24:50;11.40;;;4.30;;
63965;SDS011;50151;52.030;5.350;2023-07-28T09:27:24;7.43;;;3.22;;
63965;SDS011;50151;52.030;5.350;2023-07-28T09:29:53;12.23;;;4.00;;
63965;SDS011;50151;52.030;5.350;2023-07-28T09:32:28;9.40;;;3.67;;
63965;SDS011;50151;52.030;5.350;2023-07-28T09:35:09;9.93;;;3.95;;
63965;SDS011;50151;52.030;5.350;2023-07-28T09:37:38;9.55;;;4.40;;
63965;SDS011;50151;52.030;5.350;2023-07-28T09:40:09;11.50;;;4.70;;
63965;SDS011;50151;52.030;5.350;2023-07-28T09:42:38;7.85;;;4.80;;
63965;SDS011;50151;52.030;5.350;2023-07-28T09:45:10;10.43;;;5.57;;
63965;SDS011;50151;52.030;5.350;2023-07-28T09:47:56;10.73;;;5.00;;
63965;SDS011;50151;52.030;5.350;2023-07-28T09:50:26;9.48;;;4.45;;
63965;SDS011;50151;52.030;5.350;2023-07-28T09:52:54;9.95;;;4.10;;
63965;SDS011;50151;52.030;5.350;2023-07-28T09:55:27;10.00;;;4.77;;
63965;SDS011;50151;52.030;5.350;2023-07-28T09:57:55;13.48;;;4.18;;
63965;SDS011;50151;52.030;5.350;2023-07-28T10:00:24;11.15;;;3.35;;
63965;SDS011;50151;52.030;5.350;2023-07-28T10:02:52;11.75;;;3.60;;
63965;SDS011;50151;52.030;5.350;2023-07-28T10:05:19;7.40;;;2.92;;
63965;SDS011;50151;52.030;5.350;2023-07-28T10:07:48;8.57;;;3.15;;
63965;SDS011;50151;52.030;5.350;2023-07-28T10:10:15;12.18;;;4.10;;
63965;SDS011;50151;52.030;5.350;2023-07-28T10:12:46;8.10;;;3.95;;
63965;SDS011;50151;52.030;5.350;2023-07-28T10:15:17;10.52;;;3.35;;
63965;SDS011;50151;52.030;5.350;2023-07-28T10:17:54;11.10;;;4.13;;
63965;SDS011;50151;52.030;5.350;2023-07-28T10:20:34;10.95;;;3.40;;
63965;SDS011;50151;52.030;5.350;2023-07-28T10:23:12;8.40;;;3.65;;
63965;SDS011;50151;52.030;5.350;2023-07-28T10:25:44;8.43;;;4.88;;
63965;SDS011;50151;52.030;5.350;2023-07-28T10:28:30;17.25;;;5.82;;
63965;SDS011;50151;52.030;5.350;2023-07-28T10:30:58;9.57;;;5.25;;
63965;SDS011;50151;52.030;5.350;2023-07-28T10:33:28;10.02;;;5.65;;
63965;SDS011;50151;52.030;5.350;2023-07-28T10:36:12;11.32;;;5.20;;
63965;SDS011;50151;52.030;5.350;2023-07-28T10:38:41;12.40;;;6.75;;
63965;SDS011;50151;52.030;5.350;2023-07-28T10:41:11;14.35;;;7.25;;
63965;SDS011;50151;52.030;5.350;2023-07-28T10:43:43;13.57;;;6.07;;
63965;SDS011;50151;52.030;5.350;2023-07-28T10:46:13;14.80;;;7.32;;
63965;SDS011;50151;52.030;5.350;2023-07-28T10:48:43;18.10;;;8.23;;
63965;SDS011;50151;52.030;5.350;2023-07-28T10:51:21;12.35;;;7.75;;
63965;SDS011;50151;52.030;5.350;2023-07-28T10:53:59;13.32;;;7.40;;
63965;SDS011;50151;52.030;5.350;2023-07-28T10:56:26;10.32;;;5.47;;
63965;SDS011;50151;52.030;5.350;2023-07-28T10:59:00;13.70;;;5.72;;
63965;SDS011;50151;52.030;5.350;2023-07-28T11:01:30;10.23;;;5.18;;
63965;SDS011;50151;52.030;5.350;2023-07-28T11:04:11;7.72;;;4.45;;
63965;SDS011;50151;52.030;5.350;2023-07-28T11:06:42;7.65;;;4.10;;
63965;SDS011;50151;52.030;5.350;2023-07-28T11:09:11;10.73;;;4.22;;
63965;SDS011;50151;52.030;5.350;2023-07-28T11:11:38;10.98;;;4.70;;
63965;SDS011;50151;52.030;5.350;2023-07-28T11:14:08;12.98;;;5.50;;
63965;SDS011;50151;52.030;5.350;2023-07-28T11:16:35;13.18;;;6.10;;
63965;SDS011;50151;52.030;5.350;2023-07-28T11:19:08;11.55;;;6.40;;
63965;SDS011;50151;52.030;5.350;2023-07-28T11:21:40;12.43;;;5.78;;
63965;SDS011;50151;52.030;5.350;2023-07-28T11:24:07;12.88;;;5.85;;
63965;SDS011;50151;52.030;5.350;2023-07-28T11:26:35;13.40;;;4.82;;
63965;SDS011;50151;52.030;5.350;2023-07-28T11:29:06;17.02;;;5.35;;
63965;SDS011;50151;52.030;5.350;2023-07-28T11:31:33;13.45;;;5.88;;
63965;SDS011;50151;52.030;5.350;2023-07-28T11:34:00;9.90;;;4.60;;
63965;SDS011;50151;52.030;5.350;2023-07-28T11:36:28;10.77;;;4.68;;
63965;SDS011;50151;52.030;5.350;2023-07-28T11:38:57;8.90;;;4.43;;
63965;SDS011;50151;52.030;5.350;2023-07-28T11:41:25;9.43;;;4.30;;
63965;SDS011;50151;52.030;5.350;2023-07-28T11:43:53;12.25;;;4.82;;
63965;SDS011;50151;52.030;5.350;2023-07-28T11:46:36;6.80;;;4.38;;
63965;SDS011;50151;52.030;5.350;2023-07-28T11:51:46;11.32;;;4.30;;
63965;SDS011;50151;52.030;5.350;2023-07-28T11:54:16;10.20;;;4.85;;
63965;SDS011;50151;52.030;5.350;2023-07-28T11:56:48;7.95;;;4.40;;
63965;SDS011;50151;52.030;5.350;2023-07-28T11:59:17;9.80;;;4.18;;
63965;SDS011;50151;52.030;5.350;2023-07-28T12:01:55;7.97;;;4.07;;
63965;SDS011;50151;52.030;5.350;2023-07-28T12:04:29;8.90;;;4.38;;
63965;SDS011;50151;52.030;5.350;2023-07-28T12:07:01;14.65;;;4.78;;
63965;SDS011;50151;52.030;5.350;2023-07-28T12:15:18;8.88;;;4.35;;
63965;SDS011;50151;52.030;5.350;2023-07-28T12:18:08;8.50;;;3.97;;
63965;SDS011;50151;52.030;5.350;2023-07-28T12:20:46;7.82;;;3.17;;
63965;SDS011;50151;52.030;5.350;2023-07-28T12:23:17;8.23;;;3.83;;
63965;SDS011;50151;52.030;5.350;2023-07-28T12:25:48;8.88;;;4.55;;
63965;SDS011;50151;52.030;5.350;2023-07-28T12:28:22;9.93;;;4.40;;
63965;SDS011;50151;52.030;5.350;2023-07-28T12:30:49;9.60;;;4.82;;
63965;SDS011;50151;52.030;5.350;2023-07-28T12:33:18;7.75;;;4.63;;
63965;SDS011;50151;52.030;5.350;2023-07-28T12:35:47;7.25;;;4.10;;
63965;SDS011;50151;52.030;5.350;2023-07-28T12:38:16;7.65;;;4.72;;
63965;SDS011;50151;52.030;5.350;2023-07-28T12:40:46;8.77;;;4.78;;
63965;SDS011;50151;52.030;5.350;2023-07-28T12:43:15;10.32;;;4.15;;
63965;SDS011;50151;52.030;5.350;2023-07-28T12:45:45;5.38;;;4.25;;
63965;SDS011;50151;52.030;5.350;2023-07-28T12:48:15;7.15;;;4.40;;
63965;SDS011;50151;52.030;5.350;2023-07-28T12:50:45;7.40;;;4.65;;
63965;SDS011;50151;52.030;5.350;2023-07-28T12:53:12;8.85;;;5.43;;
63965;SDS011;50151;52.030;5.350;2023-07-28T12:55:45;6.07;;;4.32;;
63965;SDS011;50151;52.030;5.350;2023-07-28T12:58:14;6.38;;;3.80;;
63965;SDS011;50151;52.030;5.350;2023-07-28T13:00:44;6.85;;;4.20;;
63965;SDS011;50151;52.030;5.350;2023-07-28T13:03:13;7.10;;;4.65;;
63965;SDS011;50151;52.030;5.350;2023-07-28T13:05:40;9.95;;;4.80;;
63965;SDS011;50151;52.030;5.350;2023-07-28T13:08:10;12.63;;;5.60;;
63965;SDS011;50151;52.030;5.350;2023-07-28T13:10:36;10.02;;;6.10;;
63965;SDS011;50151;52.030;5.350;2023-07-28T13:13:06;12.10;;;6.88;;
63965;SDS011;50151;52.030;5.350;2023-07-28T13:15:39;7.68;;;5.82;;
63965;SDS011;50151;52.030;5.350;2023-07-28T13:18:06;9.75;;;5.50;;
63965;SDS011;50151;52.030;5.350;2023-07-28T13:20:33;9.52;;;5.82;;
63965;SDS011;50151;52.030;5.350;2023-07-28T13:22:59;8.35;;;4.78;;
63965;SDS011;50151;52.030;5.350;2023-07-28T13:25:26;6.80;;;5.13;;
63965;SDS011;50151;52.030;5.350;2023-07-28T13:27:53;8.25;;;5.68;;
63965;SDS011;50151;52.030;5.350;2023-07-28T13:30:20;9.85;;;6.07;;
63965;SDS011;50151;52.030;5.350;2023-07-28T13:32:47;15.63;;;6.53;;
63965;SDS011;50151;52.030;5.350;2023-07-28T13:35:14;10.30;;;5.80;;
63965;SDS011;50151;52.030;5.350;2023-07-28T13:37:41;8.07;;;6.13;;
63965;SDS011;50151;52.030;5.350;2023-07-28T13:40:08;8.93;;;5.65;;
63965;SDS011;50151;52.030;5.350;2023-07-28T13:42:38;8.32;;;5.30;;
63965;SDS011;50151;52.030;5.350;2023-07-28T13:45:05;8.70;;;6.00;;
63965;SDS011;50151;52.030;5.350;2023-07-28T13:47:32;12.95;;;5.95;;
63965;SDS011;50151;52.030;5.350;2023-07-28T13:49:59;7.80;;;5.18;;
63965;SDS011;50151;52.030;5.350;2023-07-28T13:52:25;10.07;;;5.43;;
63965;SDS011;50151;52.030;5.350;2023-07-28T13:54:53;8.70;;;5.20;;
63965;SDS011;50151;52.030;5.350;2023-07-28T13:57:23;8.77;;;6.25;;
63965;SDS011;50151;52.030;5.350;2023-07-28T13:59:50;11.50;;;6.38;;
63965;SDS011;50151;52.030;5.350;2023-07-28T14:02:17;10.73;;;5.72;;
63965;SDS011;50151;52.030;5.350;2023-07-28T14:04:44;7.57;;;5.75;;
63965;SDS011;50151;52.030;5.350;2023-07-28T14:07:11;12.77;;;5.63;;
63965;SDS011;50151;52.030;5.350;2023-07-28T14:09:38;8.10;;;5.93;;
63965;SDS011;50151;52.030;5.350;2023-07-28T14:12:05;10.00;;;5.78;;
63965;SDS011;50151;52.030;5.350;2023-07-28T14:14:32;7.97;;;5.70;;
63965;SDS011;50151;52.030;5.350;2023-07-28T14:16:59;9.07;;;5.63;;
63965;SDS011;50151;52.030;5.350;2023-07-28T14:19:26;10.38;;;5.75;;
63965;SDS011;50151;52.030;5.350;2023-07-28T14:21:52;9.30;;;5.80;;
63965;SDS011;50151;52.030;5.350;2023-07-28T14:24:19;9.38;;;5.90;;
63965;SDS011;50151;52.030;5.350;2023-07-28T14:26:46;7.35;;;5.30;;
63965;SDS011;50151;52.030;5.350;2023-07-28T14:29:13;8.02;;;5.20;;
63965;SDS011;50151;52.030;5.350;2023-07-28T14:31:40;8.80;;;5.43;;
63965;SDS011;50151;52.030;5.350;2023-07-28T14:34:06;7.93;;;5.63;;
63965;SDS011;50151;52.030;5.350;2023-07-28T14:36:33;9.82;;;6.03;;
63965;SDS011;50151;52.030;5.350;2023-07-28T14:39:02;9.82;;;6.20;;
63965;SDS011;50151;52.030;5.350;2023-07-28T14:41:29;10.32;;;5.82;;
63965;SDS011;50151;52.030;5.350;2023-07-28T14:43:56;10.98;;;6.25;;
63965;SDS011;50151;52.030;5.350;2023-07-28T14:46:23;12.27;;;6.68;;
63965;SDS011;50151;52.030;5.350;2023-07-28T14:48:51;11.57;;;7.28;;
63965;SDS011;50151;52.030;5.350;2023-07-28T14:51:19;11.70;;;7.10;;
63965;SDS011;50151;52.030;5.350;2023-07-28T14:53:45;10.23;;;7.18;;